createdAt,value
2022-10-07T00:00:19.115Z,11.20
2022-10-07T00:02:48.303Z,11.20
2022-10-07T00:05:17.686Z,11.10
2022-10-07T00:07:47.031Z,11.10
2022-10-07T00:10:17.822Z,11.10
2022-10-07T00:12:46.869Z,11.10
2022-10-07T00:15:17.182Z,11.10
2022-10-07T00:17:46.666Z,11.00
2022-10-07T00:20:15.950Z,11.00
2022-10-07T00:22:44.968Z,10.90
2022-10-07T00:25:14.439Z,11.00
2022-10-07T00:27:45.072Z,11.00
2022-10-07T00:30:15.428Z,10.90
2022-10-07T00:32:44.999Z,11.00
2022-10-07T00:35:14.421Z,10.90
2022-10-07T00:37:44.559Z,10.80
2022-10-07T00:40:14.801Z,10.80
2022-10-07T00:42:45.162Z,10.90
2022-10-07T00:45:19.605Z,10.80
2022-10-07T00:47:51.283Z,10.80
2022-10-07T00:50:25.485Z,10.80
2022-10-07T00:53:00.609Z,10.70
2022-10-07T00:55:32.819Z,10.80
2022-10-07T00:58:08.181Z,10.70
2022-10-07T01:00:37.734Z,10.80
2022-10-07T01:03:07.212Z,10.70
2022-10-07T01:05:36.178Z,10.70
2022-10-07T01:08:05.600Z,10.70
2022-10-07T01:10:43.846Z,10.60
2022-10-07T01:13:25.389Z,10.60
2022-10-07T01:16:03.577Z,10.60
2022-10-07T01:18:38.770Z,10.60
2022-10-07T01:21:11.976Z,10.50
2022-10-07T01:23:57.555Z,10.50
2022-10-07T01:26:49.732Z,10.50
2022-10-07T01:29:24.778Z,10.50
2022-10-07T01:32:00.416Z,10.50
2022-10-07T01:34:30.001Z,10.50
2022-10-07T01:37:00.823Z,10.40
2022-10-07T01:39:35.247Z,10.50
2022-10-07T01:42:06.862Z,10.50
2022-10-07T01:44:36.565Z,10.50
2022-10-07T01:47:05.847Z,10.40
2022-10-07T01:49:34.961Z,10.40
2022-10-07T01:52:31.968Z,10.40
2022-10-07T01:55:24.276Z,10.40
2022-10-07T01:58:03.704Z,10.40
2022-10-07T02:00:34.257Z,10.40
2022-10-07T02:03:24.109Z,10.40
2022-10-07T02:05:55.962Z,10.40
2022-10-07T02:08:33.930Z,10.40
2022-10-07T02:11:11.752Z,10.40
2022-10-07T02:13:58.148Z,10.40
2022-10-07T02:16:36.746Z,10.30
2022-10-07T02:19:12.385Z,10.30
2022-10-07T02:21:43.405Z,10.30
2022-10-07T02:24:14.006Z,10.30
2022-10-07T02:26:46.689Z,10.20
2022-10-07T02:29:19.376Z,10.10
2022-10-07T02:31:50.245Z,10.10
2022-10-07T02:34:22.412Z,10.10
2022-10-07T02:36:55.262Z,10.10
2022-10-07T02:39:24.366Z,10.10
2022-10-07T02:42:03.814Z,10.00
2022-10-07T02:44:40.844Z,10.10
2022-10-07T02:47:16.778Z,10.00
2022-10-07T02:49:50.506Z,10.00
2022-10-07T02:52:22.289Z,10.00
2022-10-07T02:54:58.126Z,10.00
2022-10-07T02:57:32.010Z,10.00
2022-10-07T03:00:08.607Z,10.00
2022-10-07T03:02:50.830Z,9.90
2022-10-07T03:05:22.007Z,9.90
2022-10-07T03:07:57.137Z,9.90
2022-10-07T03:10:29.173Z,9.70
2022-10-07T03:12:59.179Z,9.40
2022-10-07T03:15:29.906Z,9.20
2022-10-07T03:17:59.686Z,9.20
2022-10-07T03:20:32.891Z,9.10
2022-10-07T03:23:02.887Z,9.10
2022-10-07T03:25:31.828Z,9.00
2022-10-07T03:28:01.458Z,8.90
2022-10-07T03:30:32.838Z,8.80
2022-10-07T03:33:01.950Z,8.80
2022-10-07T03:35:31.810Z,8.70
2022-10-07T03:38:01.260Z,8.60
2022-10-07T03:40:31.616Z,8.60
2022-10-07T03:43:00.592Z,8.60
2022-10-07T03:45:30.650Z,8.60
2022-10-07T03:48:01.417Z,8.60
2022-10-07T03:50:30.506Z,8.50
2022-10-07T03:52:59.442Z,8.50
2022-10-07T03:55:29.135Z,8.50
2022-10-07T03:57:59.743Z,8.40
2022-10-07T04:00:31.081Z,8.40
2022-10-07T04:03:02.256Z,8.40
2022-10-07T04:05:31.436Z,8.40
2022-10-07T04:08:00.691Z,8.40
2022-10-07T04:10:29.845Z,8.40
2022-10-07T04:12:59.197Z,8.40
2022-10-07T04:15:28.441Z,8.40
2022-10-07T04:17:58.999Z,8.30
2022-10-07T04:20:31.016Z,8.30
2022-10-07T04:23:00.126Z,8.20
2022-10-07T04:25:36.037Z,8.20
2022-10-07T04:28:17.335Z,8.10
2022-10-07T04:30:51.541Z,8.10
2022-10-07T04:33:25.331Z,8.10
2022-10-07T04:35:58.240Z,8.00
2022-10-07T04:38:28.486Z,8.10
2022-10-07T04:41:00.691Z,8.10
2022-10-07T04:43:34.249Z,8.00
2022-10-07T04:46:09.375Z,8.00
2022-10-07T04:48:45.832Z,7.90
2022-10-07T04:51:19.062Z,7.80
2022-10-07T04:53:56.787Z,7.90
2022-10-07T04:56:31.917Z,7.90
2022-10-07T04:59:02.782Z,7.90
2022-10-07T05:01:32.021Z,7.90
2022-10-07T05:04:01.373Z,7.90
2022-10-07T05:06:33.063Z,7.90
2022-10-07T05:09:02.411Z,7.90
2022-10-07T05:11:35.191Z,7.90
2022-10-07T05:14:10.452Z,7.90
2022-10-07T05:16:40.058Z,7.90
2022-10-07T05:19:10.742Z,7.90
2022-10-07T05:21:42.313Z,8.00
2022-10-07T05:24:11.595Z,8.10
2022-10-07T05:26:42.214Z,8.20
2022-10-07T05:29:12.142Z,8.30
2022-10-07T05:31:48.746Z,8.30
2022-10-07T05:34:21.442Z,8.20
2022-10-07T05:36:52.229Z,8.20
2022-10-07T05:39:21.275Z,8.30
2022-10-07T05:41:59.107Z,8.20
2022-10-07T05:44:33.453Z,8.20
2022-10-07T05:47:05.082Z,8.30
2022-10-07T05:49:36.283Z,9.30
2022-10-07T05:52:08.031Z,10.90
2022-10-07T05:54:38.122Z,12.70
2022-10-07T05:57:07.877Z,14.30
2022-10-07T05:59:37.806Z,15.70
2022-10-07T06:02:07.363Z,17.10
2022-10-07T06:04:38.414Z,18.20
2022-10-07T06:07:09.640Z,19.10
2022-10-07T06:09:56.518Z,20.30
2022-10-07T06:12:43.411Z,21.20
2022-10-07T06:15:15.764Z,22.30
2022-10-07T06:17:49.551Z,22.50
2022-10-07T06:20:21.362Z,21.60
2022-10-07T06:22:58.561Z,21.40
2022-10-07T06:25:29.532Z,21.50
2022-10-07T06:28:00.373Z,22.10
2022-10-07T06:30:31.333Z,21.90
2022-10-07T06:33:03.643Z,22.00
2022-10-07T06:35:33.402Z,22.60
2022-10-07T06:38:04.562Z,23.10
2022-10-07T06:40:34.342Z,23.30
2022-10-07T06:43:04.140Z,23.80
2022-10-07T06:45:47.502Z,23.50
2022-10-07T06:48:17.393Z,23.00
2022-10-07T06:50:52.194Z,22.60
2022-10-07T06:53:24.481Z,22.00
2022-10-07T06:55:58.004Z,21.50
2022-10-07T06:58:29.311Z,21.20
2022-10-07T07:01:00.979Z,20.80
2022-10-07T07:03:31.501Z,20.50
2022-10-07T07:06:03.624Z,20.50
2022-10-07T07:08:37.570Z,20.20
2022-10-07T07:11:31.521Z,20.20
2022-10-07T07:14:06.730Z,20.30
2022-10-07T07:16:36.574Z,20.10
2022-10-07T07:19:08.854Z,20.00
2022-10-07T07:21:41.142Z,20.50
2022-10-07T07:24:15.649Z,20.30
2022-10-07T07:26:46.911Z,20.10
2022-10-07T07:29:17.143Z,20.00
2022-10-07T07:31:54.312Z,19.80
2022-10-07T07:34:27.254Z,19.60
2022-10-07T07:36:57.991Z,19.30
2022-10-07T07:39:34.332Z,19.50
2022-10-07T07:42:11.606Z,19.60
2022-10-07T07:44:41.182Z,19.90
2022-10-07T07:47:13.324Z,20.10
2022-10-07T07:49:42.595Z,20.40
2022-10-07T07:52:14.843Z,20.80
2022-10-07T07:54:51.968Z,21.10
2022-10-07T07:57:21.423Z,21.20
2022-10-07T07:59:50.862Z,20.90
2022-10-07T08:02:22.200Z,21.00
2022-10-07T08:04:54.164Z,21.50
2022-10-07T08:07:26.671Z,22.00
2022-10-07T08:09:57.488Z,22.20
2022-10-07T08:12:26.900Z,22.20
2022-10-07T08:14:58.325Z,22.60
2022-10-07T08:17:27.675Z,22.60
2022-10-07T08:19:57.068Z,23.10
2022-10-07T08:22:26.776Z,23.60
2022-10-07T08:25:00.296Z,23.90
2022-10-07T08:27:30.834Z,24.10
2022-10-07T08:30:00.085Z,24.40
2022-10-07T08:32:31.377Z,24.40
2022-10-07T08:35:00.628Z,24.40
2022-10-07T08:37:30.874Z,23.60
2022-10-07T08:40:01.790Z,23.70
2022-10-07T08:42:36.434Z,23.80
2022-10-07T08:45:10.616Z,23.80
2022-10-07T08:47:44.115Z,23.80
2022-10-07T08:50:19.881Z,23.90
2022-10-07T08:52:52.957Z,23.90
2022-10-07T08:55:28.758Z,23.70
2022-10-07T08:58:22.538Z,23.80
2022-10-07T09:00:56.696Z,24.10
2022-10-07T09:03:38.573Z,24.30
2022-10-07T09:06:15.338Z,24.60
2022-10-07T09:08:50.218Z,24.70
2022-10-07T09:11:27.238Z,24.70
2022-10-07T09:14:02.948Z,24.40
2022-10-07T09:16:37.557Z,24.50
2022-10-07T09:19:07.787Z,24.40
2022-10-07T09:21:44.191Z,24.30
2022-10-07T09:24:21.549Z,24.40
2022-10-07T09:26:55.439Z,24.40
2022-10-07T09:29:27.279Z,24.40
2022-10-07T09:31:58.514Z,24.40
2022-10-07T09:34:29.480Z,24.30
2022-10-07T09:37:17.929Z,24.10
2022-10-07T09:39:49.020Z,24.00
2022-10-07T09:42:32.544Z,23.90
2022-10-07T09:45:04.919Z,24.00
2022-10-07T09:47:40.912Z,23.80
2022-10-07T09:50:33.818Z,23.80
2022-10-07T09:53:03.781Z,23.50
2022-10-07T09:55:38.661Z,23.40
2022-10-07T09:58:20.130Z,23.20
2022-10-07T10:00:50.950Z,23.00
2022-10-07T10:03:21.259Z,23.10
2022-10-07T10:05:57.811Z,23.10
2022-10-07T10:08:30.020Z,22.90
2022-10-07T10:11:01.682Z,22.60
2022-10-07T10:13:35.106Z,22.40
2022-10-07T10:16:06.304Z,22.20
2022-10-07T10:18:39.479Z,21.90
2022-10-07T10:21:30.449Z,21.90
2022-10-07T10:24:00.818Z,22.10
2022-10-07T10:26:56.366Z,22.00
2022-10-07T10:29:49.950Z,21.80
2022-10-07T10:32:55.509Z,21.70
2022-10-07T10:35:29.328Z,21.60
2022-10-07T10:38:22.197Z,21.60
2022-10-07T10:41:00.728Z,21.60
2022-10-07T10:43:38.773Z,21.50
2022-10-07T10:46:28.669Z,21.50
2022-10-07T10:49:15.523Z,21.60
2022-10-07T10:51:56.126Z,21.50
2022-10-07T10:54:32.858Z,21.50
2022-10-07T10:57:12.748Z,21.50
2022-10-07T11:00:05.098Z,21.50
2022-10-07T11:03:07.153Z,21.50
2022-10-07T11:05:38.038Z,21.40
2022-10-07T11:08:17.465Z,21.50
2022-10-07T11:10:51.805Z,21.40
2022-10-07T11:13:31.962Z,21.40
2022-10-07T11:16:06.835Z,21.40
2022-10-07T11:18:46.130Z,21.30
2022-10-07T11:21:21.920Z,21.20
2022-10-07T11:23:59.809Z,21.20
2022-10-07T11:26:35.271Z,21.30
2022-10-07T11:29:16.885Z,21.30
2022-10-07T11:31:51.852Z,21.40
2022-10-07T11:34:27.130Z,21.40
2022-10-07T11:37:03.451Z,21.50
2022-10-07T11:39:32.821Z,21.50
2022-10-07T11:42:05.927Z,21.40
2022-10-07T11:44:40.952Z,21.40
2022-10-07T11:47:16.870Z,21.30
2022-10-07T11:49:56.286Z,21.30
2022-10-07T11:52:28.763Z,21.30
2022-10-07T11:55:04.915Z,21.30
2022-10-07T11:57:37.282Z,21.00
2022-10-07T12:00:09.659Z,20.80
2022-10-07T12:02:46.243Z,21.00
2022-10-07T12:06:06.828Z,21.00
2022-10-07T12:08:39.070Z,20.90
2022-10-07T12:11:41.428Z,20.80
2022-10-07T12:14:43.732Z,20.70
2022-10-07T12:17:25.599Z,20.50
2022-10-07T12:20:47.336Z,20.70
2022-10-07T12:23:45.587Z,20.90
2022-10-07T12:26:52.219Z,20.90
2022-10-07T12:29:45.427Z,21.10
2022-10-07T12:32:57.714Z,21.00
2022-10-07T12:35:54.715Z,21.00
2022-10-07T12:38:29.938Z,20.90
2022-10-07T12:41:14.995Z,21.00
2022-10-07T12:43:51.556Z,20.90
2022-10-07T12:46:24.658Z,20.80
2022-10-07T12:48:59.940Z,20.80
2022-10-07T12:51:32.422Z,20.90
2022-10-07T12:54:02.180Z,21.00
2022-10-07T12:56:33.304Z,21.10
2022-10-07T12:59:50.083Z,21.20
2022-10-07T13:02:55.022Z,21.10
2022-10-07T13:06:12.669Z,21.10
2022-10-07T13:09:06.690Z,21.10
2022-10-07T13:12:00.848Z,21.10
2022-10-07T13:14:36.769Z,21.00
2022-10-07T13:17:29.977Z,20.90
2022-10-07T13:20:11.168Z,21.00
2022-10-07T13:22:48.665Z,21.00
2022-10-07T13:25:21.963Z,20.90
2022-10-07T13:27:58.062Z,20.80
2022-10-07T13:30:37.954Z,20.80
2022-10-07T13:33:26.472Z,20.90
2022-10-07T13:36:13.095Z,20.90
2022-10-07T13:38:42.602Z,20.80
2022-10-07T13:41:20.369Z,20.80
2022-10-07T13:43:58.635Z,20.80
2022-10-07T13:46:30.626Z,20.70
2022-10-07T13:49:01.610Z,20.70
2022-10-07T13:51:33.814Z,20.70
2022-10-07T13:54:05.283Z,20.80
2022-10-07T13:56:40.634Z,20.80
2022-10-07T13:59:18.337Z,20.80
2022-10-07T14:01:50.028Z,20.70
2022-10-07T14:04:25.632Z,20.70
2022-10-07T14:07:01.378Z,20.60
2022-10-07T14:09:44.573Z,20.70
2022-10-07T14:12:19.912Z,20.80
2022-10-07T14:14:53.516Z,20.80
2022-10-07T14:17:35.463Z,20.80
2022-10-07T14:20:08.323Z,20.70
2022-10-07T14:22:41.372Z,20.60
2022-10-07T14:25:20.203Z,20.60
2022-10-07T14:27:55.863Z,20.50
2022-10-07T14:30:56.757Z,20.40
2022-10-07T14:33:48.652Z,20.40
2022-10-07T14:36:20.179Z,20.30
2022-10-07T14:38:52.486Z,20.20
2022-10-07T14:41:24.388Z,20.20
2022-10-07T14:43:53.956Z,20.20
2022-10-07T14:46:26.838Z,20.20
2022-10-07T14:48:56.676Z,20.00
2022-10-07T14:51:29.247Z,20.00
2022-10-07T14:54:03.383Z,19.90
2022-10-07T14:56:34.214Z,19.90
2022-10-07T14:59:03.641Z,19.90
2022-10-07T15:01:34.813Z,19.90
2022-10-07T15:04:04.415Z,19.80
2022-10-07T15:06:35.124Z,19.80
2022-10-07T15:09:04.323Z,19.80
2022-10-07T15:11:33.700Z,19.80
2022-10-07T15:14:03.368Z,19.60
2022-10-07T15:16:34.559Z,19.60
2022-10-07T15:19:04.095Z,19.60
2022-10-07T15:21:33.533Z,19.60
2022-10-07T15:24:03.397Z,19.50
2022-10-07T15:26:32.674Z,19.50
2022-10-07T15:29:02.195Z,19.50
2022-10-07T15:31:32.108Z,19.50
2022-10-07T15:34:03.054Z,19.50
2022-10-07T15:36:33.064Z,19.50
2022-10-07T15:39:02.803Z,19.40
2022-10-07T15:41:34.494Z,19.40
2022-10-07T15:44:05.926Z,19.20
2022-10-07T15:46:35.654Z,19.10
2022-10-07T15:49:07.811Z,19.00
2022-10-07T15:51:37.126Z,18.90
2022-10-07T15:54:07.779Z,18.80
2022-10-07T15:56:37.000Z,18.60
2022-10-07T15:59:06.573Z,18.60
2022-10-07T16:01:35.980Z,18.60
2022-10-07T16:04:07.383Z,18.40
2022-10-07T16:06:37.313Z,18.20
2022-10-07T16:09:07.628Z,18.10
2022-10-07T16:11:37.182Z,17.90
2022-10-07T16:14:06.394Z,17.90
2022-10-07T16:16:35.658Z,17.80
2022-10-07T16:19:06.832Z,17.70
2022-10-07T16:21:38.393Z,17.60
2022-10-07T16:24:09.854Z,17.50
2022-10-07T16:26:40.474Z,17.50
2022-10-07T16:29:31.621Z,17.30
2022-10-07T16:32:01.156Z,17.20
2022-10-07T16:34:31.924Z,17.20
2022-10-07T16:37:01.768Z,17.10
2022-10-07T16:39:31.974Z,17.10
2022-10-07T16:42:04.303Z,17.00
2022-10-07T16:44:34.415Z,17.00
2022-10-07T16:47:08.072Z,16.90
2022-10-07T16:49:42.795Z,16.80
2022-10-07T16:52:12.785Z,16.80
2022-10-07T16:54:43.810Z,16.80
2022-10-07T16:57:14.224Z,16.70
2022-10-07T16:59:44.486Z,16.60
2022-10-07T17:02:14.042Z,16.50
2022-10-07T17:04:44.922Z,16.30
2022-10-07T17:07:14.174Z,16.20
2022-10-07T17:09:43.565Z,16.10
2022-10-07T17:12:12.933Z,16.10
2022-10-07T17:14:43.467Z,16.00
2022-10-07T17:17:12.821Z,15.90
2022-10-07T17:19:43.484Z,15.90
2022-10-07T17:22:12.563Z,15.90
2022-10-07T17:24:42.007Z,15.80
2022-10-07T17:27:11.544Z,15.80
2022-10-07T17:29:40.786Z,15.80
2022-10-07T17:32:10.269Z,15.70
2022-10-07T17:34:43.216Z,15.70
2022-10-07T17:37:16.293Z,15.60
2022-10-07T17:39:45.495Z,15.50
2022-10-07T17:42:14.650Z,15.50
2022-10-07T17:44:43.896Z,15.40
2022-10-07T17:47:13.135Z,15.20
2022-10-07T17:49:42.329Z,15.20
2022-10-07T17:52:13.518Z,15.10
2022-10-07T17:54:44.202Z,15.10
2022-10-07T17:57:13.753Z,15.00
2022-10-07T17:59:43.001Z,15.00
2022-10-07T18:02:12.465Z,15.10
2022-10-07T18:04:42.196Z,15.10
2022-10-07T18:07:11.877Z,15.00
2022-10-07T18:09:41.311Z,15.00
2022-10-07T18:12:29.274Z,15.00
2022-10-07T18:15:16.349Z,14.90
2022-10-07T18:17:58.460Z,14.90
2022-10-07T18:20:30.318Z,14.80
2022-10-07T18:23:00.794Z,14.80
2022-10-07T18:25:30.264Z,14.70
2022-10-07T18:28:02.059Z,14.70
2022-10-07T18:30:31.235Z,14.70
2022-10-07T18:33:00.603Z,14.70
2022-10-07T18:35:29.842Z,14.60
2022-10-07T18:37:59.201Z,14.50
2022-10-07T18:40:29.253Z,14.50
2022-10-07T18:43:03.910Z,14.50
2022-10-07T18:45:33.243Z,14.40
2022-10-07T18:48:03.514Z,14.40
2022-10-07T18:50:34.777Z,14.40
2022-10-07T18:53:04.482Z,14.40
2022-10-07T18:55:34.439Z,14.40
2022-10-07T18:58:05.697Z,14.40
2022-10-07T19:00:35.413Z,14.50
2022-10-07T19:03:05.203Z,14.40
2022-10-07T19:05:38.455Z,14.40
2022-10-07T19:08:08.238Z,14.20
2022-10-07T19:10:43.186Z,14.20
2022-10-07T19:13:33.190Z,14.20
2022-10-07T19:16:04.713Z,14.20
2022-10-07T19:18:34.984Z,14.10
2022-10-07T19:21:04.454Z,14.10
2022-10-07T19:23:33.768Z,14.10
2022-10-07T19:26:03.374Z,14.20
2022-10-07T19:28:36.399Z,14.10
2022-10-07T19:31:14.852Z,14.10
2022-10-07T19:33:44.655Z,14.10
2022-10-07T19:36:17.277Z,14.10
2022-10-07T19:38:48.137Z,14.10
2022-10-07T19:41:18.697Z,14.00
2022-10-07T19:43:49.793Z,13.90
2022-10-07T19:46:20.537Z,13.90
2022-10-07T19:48:50.073Z,13.80
2022-10-07T19:51:21.486Z,13.90
2022-10-07T19:53:51.950Z,13.90
2022-10-07T19:56:23.062Z,13.80
2022-10-07T19:58:55.704Z,13.80
2022-10-07T20:01:27.057Z,13.80
2022-10-07T20:03:59.651Z,13.80
2022-10-07T20:06:30.022Z,13.70
2022-10-07T20:09:01.765Z,13.70
2022-10-07T20:11:31.566Z,13.70
2022-10-07T20:14:04.677Z,13.60
2022-10-07T20:16:34.890Z,13.60
2022-10-07T20:19:06.923Z,13.60
2022-10-07T20:21:37.665Z,13.60
2022-10-07T20:24:08.705Z,13.50
2022-10-07T20:26:39.064Z,13.50
2022-10-07T20:29:11.940Z,13.40
2022-10-07T20:31:42.606Z,13.40
2022-10-07T20:34:14.664Z,13.30
2022-10-07T20:36:43.764Z,13.30
2022-10-07T20:39:34.271Z,13.20
2022-10-07T20:42:21.226Z,13.20
2022-10-07T20:44:52.527Z,13.00
2022-10-07T20:47:22.864Z,13.00
2022-10-07T20:49:52.083Z,13.00
2022-10-07T20:52:23.104Z,12.90
2022-10-07T20:54:52.965Z,13.00
2022-10-07T20:57:24.913Z,12.90
2022-10-07T20:59:56.054Z,12.80
2022-10-07T21:02:25.919Z,12.80
2022-10-07T21:04:55.393Z,12.80
2022-10-07T21:07:24.481Z,12.70
2022-10-07T21:09:53.534Z,12.60
2022-10-07T21:12:23.329Z,12.60
2022-10-07T21:14:55.186Z,12.50
2022-10-07T21:17:26.053Z,12.40
2022-10-07T21:19:56.677Z,12.30
2022-10-07T21:22:26.389Z,12.50
2022-10-07T21:24:55.647Z,12.50
2022-10-07T21:27:24.815Z,12.40
2022-10-07T21:29:53.844Z,12.30
2022-10-07T21:32:24.478Z,12.30
2022-10-07T21:34:54.245Z,12.30
2022-10-07T21:37:23.298Z,12.30
2022-10-07T21:39:52.961Z,12.30
2022-10-07T21:42:22.053Z,12.30
2022-10-07T21:44:50.985Z,12.30
2022-10-07T21:47:19.923Z,12.30
2022-10-07T21:49:51.265Z,12.30
2022-10-07T21:52:20.257Z,12.30
2022-10-07T21:54:49.645Z,12.30
2022-10-07T21:57:18.945Z,12.20
2022-10-07T21:59:47.836Z,12.20
2022-10-07T22:02:16.866Z,12.20
2022-10-07T22:04:45.861Z,12.30
2022-10-07T22:07:45.307Z,12.20
2022-10-07T22:10:14.322Z,12.30
2022-10-07T22:12:45.165Z,12.30
2022-10-07T22:15:14.444Z,12.20
2022-10-07T22:17:43.573Z,12.20
2022-10-07T22:20:12.601Z,12.10
2022-10-07T22:22:43.198Z,12.10
2022-10-07T22:25:12.316Z,12.10
2022-10-07T22:27:41.396Z,12.10
2022-10-07T22:30:11.749Z,12.00
2022-10-07T22:32:40.794Z,12.10
2022-10-07T22:35:30.325Z,12.10
2022-10-07T22:38:00.848Z,11.90
2022-10-07T22:40:29.926Z,11.90
2022-10-07T22:42:58.959Z,11.90
2022-10-07T22:45:27.986Z,11.90
2022-10-07T22:47:56.946Z,11.90
2022-10-07T22:50:26.150Z,11.80
2022-10-07T22:52:57.008Z,11.80
2022-10-07T22:55:27.591Z,11.70
2022-10-07T22:57:56.671Z,11.60
2022-10-07T23:00:25.682Z,11.70
2022-10-07T23:02:55.418Z,11.80
2022-10-07T23:05:24.510Z,11.70
2022-10-07T23:07:53.500Z,11.60
2022-10-07T23:10:23.419Z,11.50
2022-10-07T23:12:53.849Z,11.60
2022-10-07T23:15:22.919Z,11.60
2022-10-07T23:17:51.997Z,11.60
2022-10-07T23:20:25.434Z,11.50
2022-10-07T23:22:54.468Z,11.50
2022-10-07T23:25:26.457Z,11.50
2022-10-07T23:27:56.925Z,11.50
2022-10-07T23:30:25.802Z,11.50
2022-10-07T23:32:55.509Z,11.50
2022-10-07T23:35:24.527Z,11.50
2022-10-07T23:37:54.206Z,11.50
2022-10-07T23:40:24.076Z,11.50
2022-10-07T23:42:53.028Z,11.60
2022-10-07T23:45:23.467Z,11.50
2022-10-07T23:47:52.573Z,11.50
2022-10-07T23:50:22.365Z,11.50
2022-10-07T23:52:51.326Z,11.50
2022-10-07T23:55:20.308Z,11.50
2022-10-07T23:57:49.284Z,11.40
